Etusivu
METAR-TAF:

METAR-TAF

Lentoasemat :

Skövde, Ruotsi

Leveyspiiri: 58-27N, Pituuspiiri: 013-58E, korkeus merenpinnasta: 98 m

Tämänhetkinen sää

Tämä raportti tehtiin 54 minuuttia sitten, kello 19.50 UTC
Tuuli 5 kn idästä, vaihdellen idän ja etelän/kaakon välillä
Lämpötila 13°C
Kosteus 38%
Ilmanpaine 1015 hPa
Näkyvyys 10 km tai enemmän

METAR: ESGR 241950Z AUTO 10005KT 080V150 9999 NCD 13/M01 Q1015

Aika: 22:44 (20:44 UTC)


TAF: puuttuu

Säähavainnot ja -ennusteet yli 4000 lentoasemalta (METAR- ja TAF-raportit).

Käytössä olevat sääasemat on merkitty karttaan keltaisilla ja punaisilla pisteillä.

Aseta hiiri pisteen päälle nähdäksesi sääaseman nimen.

Klikkaa sitten nähdäksesi säähavainnot ja -ennusteet.

Kartan vaihtaminen: klikkaa mustalla rastilla varustettuja vihreitä pisteitä, niin voit zoomata sisään; viivalla varustettua vihreää pistettä, niin voit zoomata ulos tai vihreitä nuolia, niin pääset viereisille kartoille.


METAR-TAF: